sensor_id;sensor_type;location;lat;lon;timestamp;pressure;altitude;pressure_sealevel;temperature;humidity
17615;BME280;8926;49.720;6.576;2023-03-15T00:00:46;99594.63;;;3.74;79.54
17615;BME280;8926;49.720;6.576;2023-03-15T00:03:12;99592.19;;;3.69;80.48
17615;BME280;8926;49.720;6.576;2023-03-15T00:05:42;99595.03;;;3.62;79.84
17615;BME280;8926;49.720;6.576;2023-03-15T00:08:07;99589.06;;;3.60;81.49
17615;BME280;8926;49.720;6.576;2023-03-15T00:10:33;99590.75;;;3.61;80.34
17615;BME280;8926;49.720;6.576;2023-03-15T00:12:58;99599.53;;;3.55;80.27
17615;BME280;8926;49.720;6.576;2023-03-15T00:15:23;99602.25;;;3.51;80.98
17615;BME280;8926;49.720;6.576;2023-03-15T00:17:49;99597.09;;;3.51;81.37
17615;BME280;8926;49.720;6.576;2023-03-15T00:20:14;99610.03;;;3.49;81.24
17615;BME280;8926;49.720;6.576;2023-03-15T00:22:40;99610.91;;;3.50;81.56
17615;BME280;8926;49.720;6.576;2023-03-15T00:25:06;99610.97;;;3.47;81.26
17615;BME280;8926;49.720;6.576;2023-03-15T00:27:32;99616.16;;;3.47;81.26
17615;BME280;8926;49.720;6.576;2023-03-15T00:29:58;99624.59;;;3.52;81.14
17615;BME280;8926;49.720;6.576;2023-03-15T00:32:23;99620.34;;;3.51;80.79
17615;BME280;8926;49.720;6.576;2023-03-15T00:34:48;99619.34;;;3.55;81.48
17615;BME280;8926;49.720;6.576;2023-03-15T00:37:15;99624.59;;;3.52;80.67
17615;BME280;8926;49.720;6.576;2023-03-15T00:39:41;99622.13;;;3.49;80.96
17615;BME280;8926;49.720;6.576;2023-03-15T00:42:10;99614.44;;;3.46;81.69
17615;BME280;8926;49.720;6.576;2023-03-15T00:44:36;99621.13;;;3.53;80.71
17615;BME280;8926;49.720;6.576;2023-03-15T00:47:01;99615.88;;;3.56;80.94
17615;BME280;8926;49.720;6.576;2023-03-15T00:49:26;99622.81;;;3.54;81.18
17615;BME280;8926;49.720;6.576;2023-03-15T00:51:54;99622.97;;;3.49;81.01
17615;BME280;8926;49.720;6.576;2023-03-15T00:54:19;99624.69;;;3.49;80.68
17615;BME280;8926;49.720;6.576;2023-03-15T00:56:48;99635.19;;;3.42;81.49
17615;BME280;8926;49.720;6.576;2023-03-15T00:59:13;99627.44;;;3.42;81.24
17615;BME280;8926;49.720;6.576;2023-03-15T01:01:38;99629.41;;;3.36;81.27
17615;BME280;8926;49.720;6.576;2023-03-15T01:04:09;99643.16;;;3.36;81.03
17615;BME280;8926;49.720;6.576;2023-03-15T01:06:36;99637.91;;;3.38;81.73
17615;BME280;8926;49.720;6.576;2023-03-15T01:09:01;99649.28;;;3.32;82.13
17615;BME280;8926;49.720;6.576;2023-03-15T01:11:27;99649.09;;;3.38;80.96
17615;BME280;8926;49.720;6.576;2023-03-15T01:13:54;99644.03;;;3.35;81.15
17615;BME280;8926;49.720;6.576;2023-03-15T01:16:20;99645.81;;;3.33;81.71
17615;BME280;8926;49.720;6.576;2023-03-15T01:18:46;99651.88;;;3.32;81.57
17615;BME280;8926;49.720;6.576;2023-03-15T01:21:13;99664.78;;;3.32;81.31
17615;BME280;8926;49.720;6.576;2023-03-15T01:23:39;99652.75;;;3.31;82.09
17615;BME280;8926;49.720;6.576;2023-03-15T01:26:09;99661.22;;;3.36;81.08
17615;BME280;8926;49.720;6.576;2023-03-15T01:28:35;99656.91;;;3.37;81.93
17615;BME280;8926;49.720;6.576;2023-03-15T01:31:01;99664.50;;;3.41;81.60
17615;BME280;8926;49.720;6.576;2023-03-15T01:33:26;99666.19;;;3.42;81.19
17615;BME280;8926;49.720;6.576;2023-03-15T01:36:03;99673.97;;;3.41;82.10
17615;BME280;8926;49.720;6.576;2023-03-15T01:38:30;99670.50;;;3.42;81.47
17615;BME280;8926;49.720;6.576;2023-03-15T01:40:56;99664.41;;;3.45;81.05
17615;BME280;8926;49.720;6.576;2023-03-15T01:43:23;99663.69;;;3.39;81.13
17615;BME280;8926;49.720;6.576;2023-03-15T01:56:29;99680.44;;;3.26;81.06
17615;BME280;8926;49.720;6.576;2023-03-15T01:58:58;99675.31;;;3.25;80.91
17615;BME280;8926;49.720;6.576;2023-03-15T02:01:24;99678.06;;;3.19;81.02
17615;BME280;8926;49.720;6.576;2023-03-15T02:03:55;99673.81;;;3.16;80.27
17615;BME280;8926;49.720;6.576;2023-03-15T02:06:24;99672.41;;;3.06;80.31
17615;BME280;8926;49.720;6.576;2023-03-15T02:08:58;99684.66;;;2.98;80.68
17615;BME280;8926;49.720;6.576;2023-03-15T02:11:27;99680.56;;;2.89;81.36
17615;BME280;8926;49.720;6.576;2023-03-15T02:13:53;99676.25;;;2.90;82.22
17615;BME280;8926;49.720;6.576;2023-03-15T02:16:19;99678.03;;;2.88;82.70
17615;BME280;8926;49.720;6.576;2023-03-15T02:18:45;99669.34;;;2.92;82.24
17615;BME280;8926;49.720;6.576;2023-03-15T02:23:43;99681.34;;;2.93;82.78
17615;BME280;8926;49.720;6.576;2023-03-15T02:28:38;99683.81;;;2.97;82.28
17615;BME280;8926;49.720;6.576;2023-03-15T02:31:05;99669.19;;;2.98;82.84
17615;BME280;8926;49.720;6.576;2023-03-15T02:33:48;99667.41;;;3.00;81.87
17615;BME280;8926;49.720;6.576;2023-03-15T02:36:18;99675.31;;;2.94;82.50
17615;BME280;8926;49.720;6.576;2023-03-15T02:38:44;99672.63;;;2.97;82.25
17615;BME280;8926;49.720;6.576;2023-03-15T02:41:10;99667.56;;;2.94;83.14
17615;BME280;8926;49.720;6.576;2023-03-15T02:43:37;99667.63;;;2.91;83.17
17615;BME280;8926;49.720;6.576;2023-03-15T02:46:04;99673.84;;;2.85;83.27
17615;BME280;8926;49.720;6.576;2023-03-15T02:48:30;99671.28;;;2.84;83.22
17615;BME280;8926;49.720;6.576;2023-03-15T02:50:58;99678.16;;;2.85;83.68
17615;BME280;8926;49.720;6.576;2023-03-15T02:53:23;99672.03;;;2.87;83.64
17615;BME280;8926;49.720;6.576;2023-03-15T02:55:48;99672.78;;;2.91;83.28
17615;BME280;8926;49.720;6.576;2023-03-15T02:58:14;99671.03;;;2.93;83.52
17615;BME280;8926;49.720;6.576;2023-03-15T03:00:39;99673.59;;;2.93;83.86
17615;BME280;8926;49.720;6.576;2023-03-15T03:03:04;99676.09;;;2.96;83.19
17615;BME280;8926;49.720;6.576;2023-03-15T03:05:30;99669.25;;;2.95;83.41
17615;BME280;8926;49.720;6.576;2023-03-15T03:07:55;99682.97;;;2.97;83.02
17615;BME280;8926;49.720;6.576;2023-03-15T03:10:21;99686.44;;;2.96;83.89
17615;BME280;8926;49.720;6.576;2023-03-15T03:12:46;99682.88;;;3.00;83.76
17615;BME280;8926;49.720;6.576;2023-03-15T03:15:17;99679.41;;;3.01;83.27
17615;BME280;8926;49.720;6.576;2023-03-15T03:17:42;99679.41;;;3.01;83.93
17615;BME280;8926;49.720;6.576;2023-03-15T03:20:09;99684.50;;;3.04;84.19
17615;BME280;8926;49.720;6.576;2023-03-15T03:22:36;99686.06;;;3.10;84.01
17615;BME280;8926;49.720;6.576;2023-03-15T03:25:02;99685.25;;;3.08;84.13
17615;BME280;8926;49.720;6.576;2023-03-15T03:27:28;99677.38;;;3.12;83.94
17615;BME280;8926;49.720;6.576;2023-03-15T03:29:53;99675.50;;;3.17;82.82
17615;BME280;8926;49.720;6.576;2023-03-15T03:32:18;99678.13;;;3.16;82.66
17615;BME280;8926;49.720;6.576;2023-03-15T03:34:43;99675.50;;;3.17;82.80
17615;BME280;8926;49.720;6.576;2023-03-15T03:37:18;99677.97;;;3.22;83.11
17615;BME280;8926;49.720;6.576;2023-03-15T03:39:44;99668.56;;;3.19;83.18
17615;BME280;8926;49.720;6.576;2023-03-15T03:42:10;99676.25;;;3.22;83.61
17615;BME280;8926;49.720;6.576;2023-03-15T03:44:35;99678.81;;;3.22;83.85
17615;BME280;8926;49.720;6.576;2023-03-15T03:47:01;99679.66;;;3.23;83.64
17615;BME280;8926;49.720;6.576;2023-03-15T03:49:26;99688.19;;;3.26;83.74
17615;BME280;8926;49.720;6.576;2023-03-15T03:51:51;99695.91;;;3.26;82.62
17615;BME280;8926;49.720;6.576;2023-03-15T03:54:17;99707.94;;;3.27;83.48
17615;BME280;8926;49.720;6.576;2023-03-15T03:56:45;99707.84;;;3.30;82.84
17615;BME280;8926;49.720;6.576;2023-03-15T03:59:10;99712.13;;;3.31;82.76
17615;BME280;8926;49.720;6.576;2023-03-15T04:01:35;99713.03;;;3.30;82.82
17615;BME280;8926;49.720;6.576;2023-03-15T04:04:00;99724.19;;;3.31;82.77
17615;BME280;8926;49.720;6.576;2023-03-15T04:06:26;99725.03;;;3.31;83.04
17615;BME280;8926;49.720;6.576;2023-03-15T04:08:51;99725.97;;;3.29;82.28
17615;BME280;8926;49.720;6.576;2023-03-15T04:11:16;99711.50;;;3.23;82.38
17615;BME280;8926;49.720;6.576;2023-03-15T04:13:42;99716.56;;;3.26;83.18
17615;BME280;8926;49.720;6.576;2023-03-15T04:16:09;99722.66;;;3.24;83.12
17615;BME280;8926;49.720;6.576;2023-03-15T04:18:34;99723.44;;;3.27;83.75
17615;BME280;8926;49.720;6.576;2023-03-15T04:21:00;99730.28;;;3.28;83.16
17615;BME280;8926;49.720;6.576;2023-03-15T04:23:25;99731.09;;;3.30;83.27
17615;BME280;8926;49.720;6.576;2023-03-15T04:25:51;99734.47;;;3.32;83.75
17615;BME280;8926;49.720;6.576;2023-03-15T04:28:19;99736.97;;;3.35;81.73
17615;BME280;8926;49.720;6.576;2023-03-15T04:30:47;99736.13;;;3.35;82.52
17615;BME280;8926;49.720;6.576;2023-03-15T04:33:13;99730.03;;;3.37;81.72
17615;BME280;8926;49.720;6.576;2023-03-15T04:35:38;99736.81;;;3.40;82.62
17615;BME280;8926;49.720;6.576;2023-03-15T04:38:07;99724.69;;;3.44;83.06
17615;BME280;8926;49.720;6.576;2023-03-15T04:40:32;99736.63;;;3.48;82.75
17615;BME280;8926;49.720;6.576;2023-03-15T04:43:02;99745.19;;;3.50;81.94
17615;BME280;8926;49.720;6.576;2023-03-15T04:45:28;99743.41;;;3.52;83.04
17615;BME280;8926;49.720;6.576;2023-03-15T04:47:55;99742.34;;;3.59;82.99
17615;BME280;8926;49.720;6.576;2023-03-15T04:50:21;99745.69;;;3.62;82.17
17615;BME280;8926;49.720;6.576;2023-03-15T04:52:47;99756.88;;;3.63;81.65
17615;BME280;8926;49.720;6.576;2023-03-15T04:55:13;99752.47;;;3.65;82.48
17615;BME280;8926;49.720;6.576;2023-03-15T04:57:39;99750.84;;;3.62;82.07
17615;BME280;8926;49.720;6.576;2023-03-15T05:00:06;99757.72;;;3.63;81.14
17615;BME280;8926;49.720;6.576;2023-03-15T05:02:33;99754.22;;;3.64;81.81
17615;BME280;8926;49.720;6.576;2023-03-15T05:05:00;99768.81;;;3.65;82.13
17615;BME280;8926;49.720;6.576;2023-03-15T05:07:25;99757.59;;;3.66;82.14
17615;BME280;8926;49.720;6.576;2023-03-15T05:09:50;99758.44;;;3.67;81.55
17615;BME280;8926;49.720;6.576;2023-03-15T05:12:16;99760.09;;;3.69;81.29
17615;BME280;8926;49.720;6.576;2023-03-15T05:14:41;99749.81;;;3.68;82.27
17615;BME280;8926;49.720;6.576;2023-03-15T05:17:07;99755.78;;;3.70;81.89
17615;BME280;8926;49.720;6.576;2023-03-15T05:19:32;99756.59;;;3.72;80.56
17615;BME280;8926;49.720;6.576;2023-03-15T05:21:59;99757.03;;;3.57;81.52
17615;BME280;8926;49.720;6.576;2023-03-15T05:24:24;99757.19;;;3.51;82.62
17615;BME280;8926;49.720;6.576;2023-03-15T05:26:50;99759.63;;;3.57;82.24
17615;BME280;8926;49.720;6.576;2023-03-15T05:29:19;99759.78;;;3.51;81.73
17615;BME280;8926;49.720;6.576;2023-03-15T05:31:45;99759.97;;;3.43;83.35
17615;BME280;8926;49.720;6.576;2023-03-15T05:34:10;99766.00;;;3.44;82.57
17615;BME280;8926;49.720;6.576;2023-03-15T05:36:36;99769.66;;;3.36;82.60
17615;BME280;8926;49.720;6.576;2023-03-15T05:39:01;99768.13;;;3.29;81.91
17615;BME280;8926;49.720;6.576;2023-03-15T05:41:27;99776.19;;;3.17;83.05
17615;BME280;8926;49.720;6.576;2023-03-15T05:43:53;99769.34;;;3.15;83.65
17615;BME280;8926;49.720;6.576;2023-03-15T05:46:18;99776.13;;;3.19;83.67
17615;BME280;8926;49.720;6.576;2023-03-15T05:48:44;99777.06;;;3.16;83.73
17615;BME280;8926;49.720;6.576;2023-03-15T05:51:09;99778.75;;;3.17;84.04
17615;BME280;8926;49.720;6.576;2023-03-15T05:53:35;99779.69;;;3.15;83.66
17615;BME280;8926;49.720;6.576;2023-03-15T05:56:00;99785.69;;;3.15;85.10
17615;BME280;8926;49.720;6.576;2023-03-15T05:58:26;99789.97;;;3.16;84.78
17615;BME280;8926;49.720;6.576;2023-03-15T06:00:51;99793.25;;;3.23;85.33
17615;BME280;8926;49.720;6.576;2023-03-15T06:03:16;99790.53;;;3.27;85.37
17615;BME280;8926;49.720;6.576;2023-03-15T06:05:42;99786.03;;;3.35;85.27
17615;BME280;8926;49.720;6.576;2023-03-15T06:08:08;99786.72;;;3.40;85.33
17615;BME280;8926;49.720;6.576;2023-03-15T06:10:33;99789.28;;;3.42;84.18
17615;BME280;8926;49.720;6.576;2023-03-15T06:12:59;99783.09;;;3.48;84.61
17615;BME280;8926;49.720;6.576;2023-03-15T06:15:25;99789.97;;;3.49;84.51
17615;BME280;8926;49.720;6.576;2023-03-15T06:17:50;99786.56;;;3.47;84.53
17615;BME280;8926;49.720;6.576;2023-03-15T06:20:15;99784.88;;;3.46;84.65
17615;BME280;8926;49.720;6.576;2023-03-15T06:22:41;99790.03;;;3.46;84.21
17615;BME280;8926;49.720;6.576;2023-03-15T06:25:07;99788.34;;;3.45;85.25
17615;BME280;8926;49.720;6.576;2023-03-15T06:27:33;99797.72;;;3.49;84.98
17615;BME280;8926;49.720;6.576;2023-03-15T06:29:58;99796.75;;;3.53;83.83
17615;BME280;8926;49.720;6.576;2023-03-15T06:32:23;99794.19;;;3.51;84.65
17615;BME280;8926;49.720;6.576;2023-03-15T06:34:49;99807.91;;;3.53;84.76
17615;BME280;8926;49.720;6.576;2023-03-15T06:37:14;99804.41;;;3.56;84.73
17615;BME280;8926;49.720;6.576;2023-03-15T06:39:40;99809.53;;;3.57;84.68
17615;BME280;8926;49.720;6.576;2023-03-15T06:42:05;99809.41;;;3.62;84.33
17615;BME280;8926;49.720;6.576;2023-03-15T06:44:33;99808.53;;;3.63;85.01
17615;BME280;8926;49.720;6.576;2023-03-15T06:46:59;99803.25;;;3.66;85.00
17615;BME280;8926;49.720;6.576;2023-03-15T06:49:24;99812.63;;;3.70;83.87
17615;BME280;8926;49.720;6.576;2023-03-15T06:51:49;99808.53;;;3.63;84.29
17615;BME280;8926;49.720;6.576;2023-03-15T06:54:15;99801.56;;;3.65;83.36
17615;BME280;8926;49.720;6.576;2023-03-15T06:56:40;99817.28;;;3.57;83.37
17615;BME280;8926;49.720;6.576;2023-03-15T06:59:06;99814.00;;;3.51;82.92
17615;BME280;8926;49.720;6.576;2023-03-15T07:01:31;99820.34;;;3.39;84.12
17615;BME280;8926;49.720;6.576;2023-03-15T07:03:57;99821.28;;;3.36;83.71
17615;BME280;8926;49.720;6.576;2023-03-15T07:06:22;99830.00;;;3.32;83.83
17615;BME280;8926;49.720;6.576;2023-03-15T07:08:47;99838.56;;;3.34;84.18
17615;BME280;8926;49.720;6.576;2023-03-15T07:11:13;99835.97;;;3.34;83.96
17615;BME280;8926;49.720;6.576;2023-03-15T07:13:38;99836.09;;;3.30;84.53
17615;BME280;8926;49.720;6.576;2023-03-15T07:16:03;99839.44;;;3.33;84.25
17615;BME280;8926;49.720;6.576;2023-03-15T07:18:31;99848.19;;;3.28;84.98
17615;BME280;8926;49.720;6.576;2023-03-15T07:20:58;99848.22;;;3.26;85.39
17615;BME280;8926;49.720;6.576;2023-03-15T07:23:24;99856.75;;;3.30;84.92
17615;BME280;8926;49.720;6.576;2023-03-15T07:25:50;99854.28;;;3.25;84.73
17615;BME280;8926;49.720;6.576;2023-03-15T07:28:15;99853.28;;;3.31;84.84
17615;BME280;8926;49.720;6.576;2023-03-15T07:30:40;99851.69;;;3.25;84.25
17615;BME280;8926;49.720;6.576;2023-03-15T07:33:06;99852.56;;;3.24;84.69
17615;BME280;8926;49.720;6.576;2023-03-15T07:35:31;99848.34;;;3.22;84.87
17615;BME280;8926;49.720;6.576;2023-03-15T07:37:56;99851.88;;;3.18;86.53
17615;BME280;8926;49.720;6.576;2023-03-15T07:40:22;99856.13;;;3.20;86.29
17615;BME280;8926;49.720;6.576;2023-03-15T07:42:47;99850.88;;;3.23;86.47
17615;BME280;8926;49.720;6.576;2023-03-15T07:45:13;99850.59;;;3.35;86.76
17615;BME280;8926;49.720;6.576;2023-03-15T07:47:39;99858.91;;;3.45;85.71
17615;BME280;8926;49.720;6.576;2023-03-15T07:50:05;99857.03;;;3.52;85.87
17615;BME280;8926;49.720;6.576;2023-03-15T07:52:31;99863.88;;;3.53;85.61
17615;BME280;8926;49.720;6.576;2023-03-15T07:54:56;99866.44;;;3.54;86.00
17615;BME280;8926;49.720;6.576;2023-03-15T07:57:21;99870.69;;;3.57;86.02
17615;BME280;8926;49.720;6.576;2023-03-15T07:59:47;99884.31;;;3.62;85.40
17615;BME280;8926;49.720;6.576;2023-03-15T08:02:13;99885.22;;;3.61;85.97
17615;BME280;8926;49.720;6.576;2023-03-15T08:04:39;99894.72;;;3.59;85.18
17615;BME280;8926;49.720;6.576;2023-03-15T08:07:04;99887.94;;;3.55;84.90
17615;BME280;8926;49.720;6.576;2023-03-15T08:09:30;99894.19;;;3.46;85.89
17615;BME280;8926;49.720;6.576;2023-03-15T08:11:57;99901.97;;;3.45;86.23
17615;BME280;8926;49.720;6.576;2023-03-15T08:14:23;99906.16;;;3.49;85.71
17615;BME280;8926;49.720;6.576;2023-03-15T08:16:49;99908.69;;;3.52;85.53
17615;BME280;8926;49.720;6.576;2023-03-15T08:19:15;99901.75;;;3.54;84.68
17615;BME280;8926;49.720;6.576;2023-03-15T08:21:40;99918.00;;;3.57;84.56
17615;BME280;8926;49.720;6.576;2023-03-15T08:24:10;99915.44;;;3.57;85.82
17615;BME280;8926;49.720;6.576;2023-03-15T08:26:35;99911.03;;;3.61;85.91
17615;BME280;8926;49.720;6.576;2023-03-15T08:29:01;99920.47;;;3.62;85.83
17615;BME280;8926;49.720;6.576;2023-03-15T08:31:26;99930.72;;;3.65;85.87
17615;BME280;8926;49.720;6.576;2023-03-15T08:33:52;99934.09;;;3.67;86.17
17615;BME280;8926;49.720;6.576;2023-03-15T08:36:18;99935.72;;;3.71;85.04
17615;BME280;8926;49.720;6.576;2023-03-15T08:38:43;99940.81;;;3.74;84.63
17615;BME280;8926;49.720;6.576;2023-03-15T08:41:08;99938.97;;;3.79;84.70
17615;BME280;8926;49.720;6.576;2023-03-15T08:43:34;99950.19;;;3.78;84.55
17615;BME280;8926;49.720;6.576;2023-03-15T08:45:59;99951.84;;;3.81;84.63
17615;BME280;8926;49.720;6.576;2023-03-15T08:48:25;99947.69;;;3.75;83.94
17615;BME280;8926;49.720;6.576;2023-03-15T08:50:51;99955.53;;;3.70;83.82
17615;BME280;8926;49.720;6.576;2023-03-15T08:53:16;99952.03;;;3.73;84.39
17615;BME280;8926;49.720;6.576;2023-03-15T08:55:42;99952.84;;;3.75;84.16
17615;BME280;8926;49.720;6.576;2023-03-15T08:58:07;99956.16;;;3.80;84.13
17615;BME280;8926;49.720;6.576;2023-03-15T09:00:32;99955.97;;;3.88;84.51
17615;BME280;8926;49.720;6.576;2023-03-15T09:02:57;99958.31;;;3.97;84.28
17615;BME280;8926;49.720;6.576;2023-03-15T09:05:24;99959.25;;;3.93;84.74
17615;BME280;8926;49.720;6.576;2023-03-15T09:07:50;99971.19;;;3.98;85.17
17615;BME280;8926;49.720;6.576;2023-03-15T09:10:17;99971.03;;;4.04;83.56
17615;BME280;8926;49.720;6.576;2023-03-15T09:12:48;99972.66;;;4.08;84.18
17615;BME280;8926;49.720;6.576;2023-03-15T09:15:15;99974.34;;;4.09;84.43
17615;BME280;8926;49.720;6.576;2023-03-15T09:17:41;99979.59;;;4.06;84.78
17615;BME280;8926;49.720;6.576;2023-03-15T09:20:10;99993.47;;;4.02;84.02
17615;BME280;8926;49.720;6.576;2023-03-15T09:22:41;99988.16;;;4.08;83.81
17615;BME280;8926;49.720;6.576;2023-03-15T09:25:08;99998.22;;;4.18;84.41
17615;BME280;8926;49.720;6.576;2023-03-15T09:27:34;99992.63;;;4.34;83.99
17615;BME280;8926;49.720;6.576;2023-03-15T09:29:59;99993.94;;;4.49;83.51
17615;BME280;8926;49.720;6.576;2023-03-15T09:32:25;99990.84;;;4.67;82.85
17615;BME280;8926;49.720;6.576;2023-03-15T09:34:50;99981.34;;;4.96;83.67
17615;BME280;8926;49.720;6.576;2023-03-15T09:37:16;99974.81;;;5.12;82.70
17615;BME280;8926;49.720;6.576;2023-03-15T09:39:41;99975.53;;;5.17;82.67
17615;BME280;8926;49.720;6.576;2023-03-15T09:42:15;99978.75;;;5.24;83.29
17615;BME280;8926;49.720;6.576;2023-03-15T09:45:12;99982.81;;;5.32;83.46
17615;BME280;8926;49.720;6.576;2023-03-15T09:47:52;99980.53;;;5.50;82.80
17615;BME280;8926;49.720;6.576;2023-03-15T09:50:30;99988.72;;;5.64;81.74
17615;BME280;8926;49.720;6.576;2023-03-15T09:53:03;99999.06;;;5.64;82.22
17615;BME280;8926;49.720;6.576;2023-03-15T09:55:32;100013.81;;;5.62;81.12
17615;BME280;8926;49.720;6.576;2023-03-15T09:58:09;100006.34;;;5.53;81.82
17615;BME280;8926;49.720;6.576;2023-03-15T10:00:40;100007.22;;;5.52;81.60
17615;BME280;8926;49.720;6.576;2023-03-15T10:03:17;100005.13;;;5.36;81.57
17615;BME280;8926;49.720;6.576;2023-03-15T10:05:48;100008.13;;;5.51;82.65
17615;BME280;8926;49.720;6.576;2023-03-15T10:08:15;100008.84;;;5.82;81.77
17615;BME280;8926;49.720;6.576;2023-03-15T10:11:02;100007.66;;;5.92;81.20
17615;BME280;8926;49.720;6.576;2023-03-15T10:13:41;100008.25;;;6.00;80.94
17615;BME280;8926;49.720;6.576;2023-03-15T10:19:05;100012.19;;;6.12;81.74
17615;BME280;8926;49.720;6.576;2023-03-15T10:21:42;100010.88;;;6.24;81.30
17615;BME280;8926;49.720;6.576;2023-03-15T10:24:17;100005.69;;;6.24;80.95
17615;BME280;8926;49.720;6.576;2023-03-15T10:26:43;100004.03;;;6.23;80.72
17615;BME280;8926;49.720;6.576;2023-03-15T10:29:13;100008.47;;;6.19;79.58
17615;BME280;8926;49.720;6.576;2023-03-15T10:31:41;100009.38;;;6.18;80.48
17615;BME280;8926;49.720;6.576;2023-03-15T10:34:09;100013.38;;;6.27;80.49
17615;BME280;8926;49.720;6.576;2023-03-15T10:36:35;100011.44;;;6.57;78.80
17615;BME280;8926;49.720;6.576;2023-03-15T10:39:01;100008.16;;;7.43;76.79
17615;BME280;8926;49.720;6.576;2023-03-15T10:44:22;99993.25;;;8.09;73.51
17615;BME280;8926;49.720;6.576;2023-03-15T10:47:06;99998.88;;;8.21;75.03
17615;BME280;8926;49.720;6.576;2023-03-15T10:49:37;99996.28;;;8.21;74.42
17615;BME280;8926;49.720;6.576;2023-03-15T10:52:03;100001.41;;;8.02;72.92
17615;BME280;8926;49.720;6.576;2023-03-15T10:54:30;99989.19;;;8.04;72.96
17615;BME280;8926;49.720;6.576;2023-03-15T10:57:05;99982.75;;;8.91;73.46
17615;BME280;8926;49.720;6.576;2023-03-15T10:59:36;99989.22;;;9.90;70.71
17615;BME280;8926;49.720;6.576;2023-03-15T11:02:16;99982.78;;;10.32;66.69
17615;BME280;8926;49.720;6.576;2023-03-15T11:04:47;99980.78;;;10.85;66.34
17615;BME280;8926;49.720;6.576;2023-03-15T11:07:13;99974.44;;;11.21;63.32
17615;BME280;8926;49.720;6.576;2023-03-15T11:09:40;99972.44;;;11.42;63.77
17615;BME280;8926;49.720;6.576;2023-03-15T11:12:09;99972.66;;;11.53;62.41
17615;BME280;8926;49.720;6.576;2023-03-15T11:14:48;99977.28;;;11.64;63.86
17615;BME280;8926;49.720;6.576;2023-03-15T11:17:18;99974.72;;;11.78;62.54
17615;BME280;8926;49.720;6.576;2023-03-15T11:20:14;99981.72;;;11.16;63.33
17615;BME280;8926;49.720;6.576;2023-03-15T11:22:44;99982.69;;;10.66;63.40
17615;BME280;8926;49.720;6.576;2023-03-15T11:25:13;99992.94;;;10.53;63.60
17615;BME280;8926;49.720;6.576;2023-03-15T11:27:40;99995.25;;;10.42;63.81
17615;BME280;8926;49.720;6.576;2023-03-15T11:30:17;99998.00;;;10.06;63.44
17615;BME280;8926;49.720;6.576;2023-03-15T11:32:45;99999.28;;;9.80;64.83
17615;BME280;8926;49.720;6.576;2023-03-15T11:35:18;99992.59;;;9.75;65.58
17615;BME280;8926;49.720;6.576;2023-03-15T11:37:51;100006.41;;;9.77;63.69
17615;BME280;8926;49.720;6.576;2023-03-15T11:40:26;100001.47;;;9.53;62.90
17615;BME280;8926;49.720;6.576;2023-03-15T11:43:00;100014.94;;;9.44;63.96
17615;BME280;8926;49.720;6.576;2023-03-15T11:45:52;100008.34;;;9.37;64.35
17615;BME280;8926;49.720;6.576;2023-03-15T11:48:30;100007.75;;;9.49;64.96
17615;BME280;8926;49.720;6.576;2023-03-15T11:51:00;100003.47;;;9.66;65.86
17615;BME280;8926;49.720;6.576;2023-03-15T11:53:30;100003.47;;;9.66;64.34
17615;BME280;8926;49.720;6.576;2023-03-15T11:58:59;100008.69;;;9.66;63.55
17615;BME280;8926;49.720;6.576;2023-03-15T12:01:26;100015.09;;;9.41;64.94
17615;BME280;8926;49.720;6.576;2023-03-15T12:06:49;100027.03;;;9.28;64.77
17615;BME280;8926;49.720;6.576;2023-03-15T12:12:04;100027.81;;;9.30;64.00
17615;BME280;8926;49.720;6.576;2023-03-15T12:14:34;100018.22;;;9.12;64.29
17615;BME280;8926;49.720;6.576;2023-03-15T12:25:56;100008.25;;;9.75;60.84
17615;BME280;8926;49.720;6.576;2023-03-15T12:28:36;100009.19;;;10.26;60.71
17615;BME280;8926;49.720;6.576;2023-03-15T12:31:07;100001.56;;;10.71;60.57
17615;BME280;8926;49.720;6.576;2023-03-15T12:34:04;99996.25;;;10.40;60.08
17615;BME280;8926;49.720;6.576;2023-03-15T12:36:38;99997.22;;;10.87;60.49
17615;BME280;8926;49.720;6.576;2023-03-15T12:41:58;99994.88;;;10.99;55.29
17615;BME280;8926;49.720;6.576;2023-03-15T12:47:00;99980.53;;;11.21;52.93
17615;BME280;8926;49.720;6.576;2023-03-15T12:49:33;99975.97;;;11.25;55.86
17615;BME280;8926;49.720;6.576;2023-03-15T12:54:42;99977.66;;;11.42;54.84
17615;BME280;8926;49.720;6.576;2023-03-15T12:57:13;99971.31;;;11.46;54.11
17615;BME280;8926;49.720;6.576;2023-03-15T12:59:49;99969.53;;;11.46;53.99
17615;BME280;8926;49.720;6.576;2023-03-15T13:02:32;99969.09;;;11.54;51.95
17615;BME280;8926;49.720;6.576;2023-03-15T13:15:32;99971.06;;;11.19;52.15
17615;BME280;8926;49.720;6.576;2023-03-15T13:18:09;99964.84;;;11.06;51.05
17615;BME280;8926;49.720;6.576;2023-03-15T13:23:32;99969.03;;;10.61;52.45
17615;BME280;8926;49.720;6.576;2023-03-15T13:26:13;99978.28;;;10.51;52.67
17615;BME280;8926;49.720;6.576;2023-03-15T13:29:00;99968.66;;;10.36;53.90
17615;BME280;8926;49.720;6.576;2023-03-15T13:31:27;99968.28;;;10.26;54.58
17615;BME280;8926;49.720;6.576;2023-03-15T13:34:04;99965.50;;;10.12;54.39
17615;BME280;8926;49.720;6.576;2023-03-15T13:36:44;99963.59;;;9.98;53.72
17615;BME280;8926;49.720;6.576;2023-03-15T13:39:19;99973.19;;;9.98;55.39
17615;BME280;8926;49.720;6.576;2023-03-15T13:41:47;99972.50;;;9.94;55.82
17615;BME280;8926;49.720;6.576;2023-03-15T13:44:21;99971.50;;;9.97;56.67
17615;BME280;8926;49.720;6.576;2023-03-15T13:46:50;99972.50;;;10.11;57.62
17615;BME280;8926;49.720;6.576;2023-03-15T13:49:17;99971.56;;;10.12;57.48
17615;BME280;8926;49.720;6.576;2023-03-15T13:51:44;99972.03;;;10.03;56.81
17615;BME280;8926;49.720;6.576;2023-03-15T13:56:58;99971.47;;;10.14;56.80
17615;BME280;8926;49.720;6.576;2023-03-15T13:59:34;99967.78;;;10.18;56.88
17615;BME280;8926;49.720;6.576;2023-03-15T14:02:03;99968.00;;;10.13;56.22
17615;BME280;8926;49.720;6.576;2023-03-15T14:04:33;99970.66;;;9.96;56.98
17615;BME280;8926;49.720;6.576;2023-03-15T14:09:48;99964.97;;;9.53;56.61
17615;BME280;8926;49.720;6.576;2023-03-15T14:12:17;99971.09;;;9.35;56.72
17615;BME280;8926;49.720;6.576;2023-03-15T14:14:52;99971.03;;;9.18;56.62
17615;BME280;8926;49.720;6.576;2023-03-15T14:17:37;99981.72;;;9.12;57.06
17615;BME280;8926;49.720;6.576;2023-03-15T14:20:26;99983.72;;;9.07;57.32
17615;BME280;8926;49.720;6.576;2023-03-15T14:22:57;99982.47;;;8.97;57.67
17615;BME280;8926;49.720;6.576;2023-03-15T14:25:23;99988.59;;;8.96;57.67
17615;BME280;8926;49.720;6.576;2023-03-15T14:27:49;99983.16;;;9.19;58.74
17615;BME280;8926;49.720;6.576;2023-03-15T14:30:24;99984.56;;;9.26;58.23